sensor_id;sensor_type;location;lat;lon;timestamp;P1;durP1;ratioP1;P2;durP2;ratioP2
36855;SDS011;22788;51.434;6.786;2022-08-03T00:01:54;3.05;;;1.88;;
36855;SDS011;22788;51.434;6.786;2022-08-03T00:04:22;2.38;;;2.17;;
36855;SDS011;22788;51.434;6.786;2022-08-03T00:06:48;4.38;;;2.42;;
36855;SDS011;22788;51.434;6.786;2022-08-03T00:09:14;2.60;;;1.88;;
36855;SDS011;22788;51.434;6.786;2022-08-03T00:11:40;1.65;;;1.55;;
36855;SDS011;22788;51.434;6.786;2022-08-03T00:14:06;2.00;;;1.80;;
36855;SDS011;22788;51.434;6.786;2022-08-03T00:16:33;2.35;;;2.15;;
36855;SDS011;22788;51.434;6.786;2022-08-03T00:18:59;2.33;;;1.92;;
36855;SDS011;22788;51.434;6.786;2022-08-03T00:21:27;1.85;;;1.75;;
36855;SDS011;22788;51.434;6.786;2022-08-03T00:23:53;2.15;;;1.88;;
36855;SDS011;22788;51.434;6.786;2022-08-03T00:26:19;2.08;;;1.88;;
36855;SDS011;22788;51.434;6.786;2022-08-03T00:28:46;2.22;;;1.85;;
36855;SDS011;22788;51.434;6.786;2022-08-03T00:31:12;2.10;;;1.85;;
36855;SDS011;22788;51.434;6.786;2022-08-03T00:33:38;2.90;;;2.10;;
36855;SDS011;22788;51.434;6.786;2022-08-03T00:36:05;2.33;;;1.70;;
36855;SDS011;22788;51.434;6.786;2022-08-03T00:38:33;2.50;;;1.98;;
36855;SDS011;22788;51.434;6.786;2022-08-03T00:40:59;3.50;;;1.98;;
36855;SDS011;22788;51.434;6.786;2022-08-03T00:43:25;2.03;;;1.83;;
36855;SDS011;22788;51.434;6.786;2022-08-03T00:45:51;2.90;;;2.20;;
36855;SDS011;22788;51.434;6.786;2022-08-03T00:48:17;3.60;;;2.33;;
36855;SDS011;22788;51.434;6.786;2022-08-03T00:50:43;3.25;;;2.22;;
36855;SDS011;22788;51.434;6.786;2022-08-03T00:53:10;2.13;;;1.80;;
36855;SDS011;22788;51.434;6.786;2022-08-03T00:55:38;3.08;;;2.00;;
36855;SDS011;22788;51.434;6.786;2022-08-03T00:58:04;2.55;;;1.95;;
36855;SDS011;22788;51.434;6.786;2022-08-03T01:00:32;3.97;;;2.53;;
36855;SDS011;22788;51.434;6.786;2022-08-03T01:02:59;3.25;;;2.40;;
36855;SDS011;22788;51.434;6.786;2022-08-03T01:05:25;3.28;;;2.10;;
36855;SDS011;22788;51.434;6.786;2022-08-03T01:07:59;4.20;;;2.00;;
36855;SDS011;22788;51.434;6.786;2022-08-03T01:10:31;2.60;;;1.98;;
36855;SDS011;22788;51.434;6.786;2022-08-03T01:13:08;2.08;;;1.70;;
36855;SDS011;22788;51.434;6.786;2022-08-03T01:15:45;7.20;;;1.92;;
36855;SDS011;22788;51.434;6.786;2022-08-03T01:18:19;3.40;;;2.00;;
36855;SDS011;22788;51.434;6.786;2022-08-03T01:20:50;2.83;;;2.30;;
36855;SDS011;22788;51.434;6.786;2022-08-03T01:23:26;2.22;;;1.80;;
36855;SDS011;22788;51.434;6.786;2022-08-03T01:26:22;2.45;;;1.92;;
36855;SDS011;22788;51.434;6.786;2022-08-03T01:29:05;2.22;;;1.98;;
36855;SDS011;22788;51.434;6.786;2022-08-03T01:31:41;2.38;;;1.85;;
36855;SDS011;22788;51.434;6.786;2022-08-03T01:34:13;2.60;;;1.73;;
36855;SDS011;22788;51.434;6.786;2022-08-03T01:36:42;2.38;;;2.17;;
36855;SDS011;22788;51.434;6.786;2022-08-03T01:39:11;2.33;;;2.10;;
36855;SDS011;22788;51.434;6.786;2022-08-03T01:41:38;2.45;;;2.08;;
36855;SDS011;22788;51.434;6.786;2022-08-03T01:44:09;3.03;;;2.20;;
36855;SDS011;22788;51.434;6.786;2022-08-03T01:46:37;2.22;;;1.73;;
36855;SDS011;22788;51.434;6.786;2022-08-03T01:49:07;2.70;;;1.85;;
36855;SDS011;22788;51.434;6.786;2022-08-03T01:51:36;2.65;;;2.03;;
36855;SDS011;22788;51.434;6.786;2022-08-03T01:54:04;2.25;;;2.05;;
36855;SDS011;22788;51.434;6.786;2022-08-03T01:56:32;2.58;;;2.30;;
36855;SDS011;22788;51.434;6.786;2022-08-03T01:58:59;3.15;;;2.20;;
36855;SDS011;22788;51.434;6.786;2022-08-03T02:01:26;1.90;;;1.65;;
36855;SDS011;22788;51.434;6.786;2022-08-03T02:03:54;2.97;;;2.03;;
36855;SDS011;22788;51.434;6.786;2022-08-03T02:06:25;6.13;;;2.08;;
36855;SDS011;22788;51.434;6.786;2022-08-03T02:08:51;2.53;;;1.95;;
36855;SDS011;22788;51.434;6.786;2022-08-03T02:11:19;2.60;;;2.10;;
36855;SDS011;22788;51.434;6.786;2022-08-03T02:13:45;2.33;;;1.63;;
36855;SDS011;22788;51.434;6.786;2022-08-03T02:16:13;3.65;;;2.40;;
36855;SDS011;22788;51.434;6.786;2022-08-03T02:18:42;5.25;;;2.08;;
36855;SDS011;22788;51.434;6.786;2022-08-03T02:21:10;2.75;;;1.55;;
36855;SDS011;22788;51.434;6.786;2022-08-03T02:23:39;2.28;;;2.08;;
36855;SDS011;22788;51.434;6.786;2022-08-03T02:26:05;2.85;;;2.25;;
36855;SDS011;22788;51.434;6.786;2022-08-03T02:28:36;2.70;;;2.22;;
36855;SDS011;22788;51.434;6.786;2022-08-03T02:31:06;2.28;;;1.95;;
36855;SDS011;22788;51.434;6.786;2022-08-03T02:33:38;4.13;;;2.60;;
36855;SDS011;22788;51.434;6.786;2022-08-03T02:36:07;2.47;;;1.80;;
36855;SDS011;22788;51.434;6.786;2022-08-03T02:38:38;2.03;;;1.83;;
36855;SDS011;22788;51.434;6.786;2022-08-03T02:41:12;2.05;;;1.83;;
36855;SDS011;22788;51.434;6.786;2022-08-03T02:43:40;4.40;;;2.20;;
36855;SDS011;22788;51.434;6.786;2022-08-03T02:46:10;2.00;;;1.80;;
36855;SDS011;22788;51.434;6.786;2022-08-03T02:48:38;4.78;;;2.00;;
36855;SDS011;22788;51.434;6.786;2022-08-03T02:51:06;2.42;;;2.13;;
36855;SDS011;22788;51.434;6.786;2022-08-03T02:53:33;2.47;;;2.08;;
36855;SDS011;22788;51.434;6.786;2022-08-03T02:56:01;1.83;;;1.70;;
36855;SDS011;22788;51.434;6.786;2022-08-03T02:58:29;3.17;;;2.10;;
36855;SDS011;22788;51.434;6.786;2022-08-03T03:00:56;3.00;;;2.33;;
36855;SDS011;22788;51.434;6.786;2022-08-03T03:03:23;2.42;;;2.22;;
36855;SDS011;22788;51.434;6.786;2022-08-03T03:05:50;2.58;;;2.10;;
36855;SDS011;22788;51.434;6.786;2022-08-03T03:08:17;2.00;;;1.80;;
36855;SDS011;22788;51.434;6.786;2022-08-03T03:10:45;2.53;;;1.90;;
36855;SDS011;22788;51.434;6.786;2022-08-03T03:13:13;3.15;;;2.10;;
36855;SDS011;22788;51.434;6.786;2022-08-03T03:15:40;2.35;;;1.92;;
36855;SDS011;22788;51.434;6.786;2022-08-03T03:18:07;3.58;;;2.17;;
36855;SDS011;22788;51.434;6.786;2022-08-03T03:20:35;2.60;;;2.15;;
36855;SDS011;22788;51.434;6.786;2022-08-03T03:23:02;3.35;;;1.98;;
36855;SDS011;22788;51.434;6.786;2022-08-03T03:25:30;3.78;;;1.98;;
36855;SDS011;22788;51.434;6.786;2022-08-03T03:27:57;2.67;;;2.13;;
36855;SDS011;22788;51.434;6.786;2022-08-03T03:30:25;2.33;;;2.08;;
36855;SDS011;22788;51.434;6.786;2022-08-03T03:32:51;2.60;;;2.40;;
36855;SDS011;22788;51.434;6.786;2022-08-03T03:35:18;3.08;;;2.00;;
36855;SDS011;22788;51.434;6.786;2022-08-03T03:37:44;2.72;;;2.15;;
36855;SDS011;22788;51.434;6.786;2022-08-03T03:40:10;2.88;;;2.63;;
36855;SDS011;22788;51.434;6.786;2022-08-03T03:42:37;2.30;;;2.08;;
36855;SDS011;22788;51.434;6.786;2022-08-03T03:45:03;3.28;;;2.08;;
36855;SDS011;22788;51.434;6.786;2022-08-03T03:47:31;2.40;;;2.20;;
36855;SDS011;22788;51.434;6.786;2022-08-03T03:49:58;2.83;;;2.13;;
36855;SDS011;22788;51.434;6.786;2022-08-03T03:52:26;4.25;;;2.60;;
36855;SDS011;22788;51.434;6.786;2022-08-03T03:54:52;2.20;;;2.00;;
36855;SDS011;22788;51.434;6.786;2022-08-03T03:57:18;2.58;;;2.38;;
36855;SDS011;22788;51.434;6.786;2022-08-03T03:59:44;2.58;;;2.13;;
36855;SDS011;22788;51.434;6.786;2022-08-03T04:02:10;4.28;;;2.15;;
36855;SDS011;22788;51.434;6.786;2022-08-03T04:04:38;3.15;;;2.50;;
36855;SDS011;22788;51.434;6.786;2022-08-03T04:07:04;3.28;;;2.40;;
36855;SDS011;22788;51.434;6.786;2022-08-03T04:09:30;3.75;;;2.40;;
36855;SDS011;22788;51.434;6.786;2022-08-03T04:11:58;4.80;;;2.70;;
36855;SDS011;22788;51.434;6.786;2022-08-03T04:14:27;2.72;;;2.10;;
36855;SDS011;22788;51.434;6.786;2022-08-03T04:16:57;3.65;;;2.28;;
36855;SDS011;22788;51.434;6.786;2022-08-03T04:19:27;3.60;;;2.60;;
36855;SDS011;22788;51.434;6.786;2022-08-03T04:22:02;3.08;;;2.15;;
36855;SDS011;22788;51.434;6.786;2022-08-03T04:24:32;2.67;;;2.42;;
36855;SDS011;22788;51.434;6.786;2022-08-03T04:27:03;3.33;;;2.33;;
36855;SDS011;22788;51.434;6.786;2022-08-03T04:29:32;2.85;;;2.40;;
36855;SDS011;22788;51.434;6.786;2022-08-03T04:32:02;2.55;;;2.17;;
36855;SDS011;22788;51.434;6.786;2022-08-03T04:34:31;3.95;;;2.17;;
36855;SDS011;22788;51.434;6.786;2022-08-03T04:36:58;4.20;;;2.63;;
36855;SDS011;22788;51.434;6.786;2022-08-03T04:39:28;3.03;;;2.40;;
36855;SDS011;22788;51.434;6.786;2022-08-03T04:41:57;4.65;;;2.78;;
36855;SDS011;22788;51.434;6.786;2022-08-03T04:44:26;4.35;;;2.70;;
36855;SDS011;22788;51.434;6.786;2022-08-03T04:46:53;4.55;;;2.45;;
36855;SDS011;22788;51.434;6.786;2022-08-03T04:49:20;3.42;;;2.60;;
36855;SDS011;22788;51.434;6.786;2022-08-03T04:51:47;4.90;;;2.55;;
36855;SDS011;22788;51.434;6.786;2022-08-03T04:54:15;3.38;;;2.58;;
36855;SDS011;22788;51.434;6.786;2022-08-03T04:56:41;2.63;;;2.25;;
36855;SDS011;22788;51.434;6.786;2022-08-03T04:59:07;3.88;;;2.92;;
36855;SDS011;22788;51.434;6.786;2022-08-03T05:01:34;2.40;;;2.20;;
36855;SDS011;22788;51.434;6.786;2022-08-03T05:04:00;3.92;;;2.33;;
36855;SDS011;22788;51.434;6.786;2022-08-03T05:06:26;3.05;;;2.58;;
36855;SDS011;22788;51.434;6.786;2022-08-03T05:08:52;2.90;;;2.47;;
36855;SDS011;22788;51.434;6.786;2022-08-03T05:11:20;2.85;;;2.55;;
36855;SDS011;22788;51.434;6.786;2022-08-03T05:13:46;4.03;;;2.47;;
36855;SDS011;22788;51.434;6.786;2022-08-03T05:16:12;2.90;;;2.58;;
36855;SDS011;22788;51.434;6.786;2022-08-03T05:18:39;3.88;;;2.78;;
36855;SDS011;22788;51.434;6.786;2022-08-03T05:21:05;3.20;;;2.58;;
36855;SDS011;22788;51.434;6.786;2022-08-03T05:23:31;2.75;;;2.50;;
36855;SDS011;22788;51.434;6.786;2022-08-03T05:25:57;3.45;;;2.40;;
36855;SDS011;22788;51.434;6.786;2022-08-03T05:28:25;4.05;;;2.92;;
36855;SDS011;22788;51.434;6.786;2022-08-03T05:30:51;3.92;;;2.55;;
36855;SDS011;22788;51.434;6.786;2022-08-03T05:33:17;2.78;;;2.50;;
36855;SDS011;22788;51.434;6.786;2022-08-03T05:35:43;4.13;;;2.83;;
36855;SDS011;22788;51.434;6.786;2022-08-03T05:38:09;2.70;;;2.50;;
36855;SDS011;22788;51.434;6.786;2022-08-03T05:40:35;2.83;;;2.53;;
36855;SDS011;22788;51.434;6.786;2022-08-03T05:43:01;2.60;;;2.33;;
36855;SDS011;22788;51.434;6.786;2022-08-03T05:45:29;3.58;;;2.83;;
36855;SDS011;22788;51.434;6.786;2022-08-03T05:47:55;6.30;;;3.10;;
36855;SDS011;22788;51.434;6.786;2022-08-03T05:50:21;3.88;;;2.90;;
36855;SDS011;22788;51.434;6.786;2022-08-03T05:52:48;3.13;;;2.40;;
36855;SDS011;22788;51.434;6.786;2022-08-03T05:55:14;3.60;;;2.78;;
36855;SDS011;22788;51.434;6.786;2022-08-03T05:57:40;3.72;;;2.83;;
36855;SDS011;22788;51.434;6.786;2022-08-03T06:00:07;2.72;;;2.53;;
36855;SDS011;22788;51.434;6.786;2022-08-03T06:02:36;2.40;;;2.20;;
36855;SDS011;22788;51.434;6.786;2022-08-03T06:05:03;3.08;;;2.78;;
36855;SDS011;22788;51.434;6.786;2022-08-03T06:07:29;6.57;;;3.28;;
36855;SDS011;22788;51.434;6.786;2022-08-03T06:09:56;4.22;;;3.05;;
36855;SDS011;22788;51.434;6.786;2022-08-03T06:12:22;3.08;;;2.70;;
36855;SDS011;22788;51.434;6.786;2022-08-03T06:14:48;3.55;;;2.80;;
36855;SDS011;22788;51.434;6.786;2022-08-03T06:17:14;3.60;;;2.58;;
36855;SDS011;22788;51.434;6.786;2022-08-03T06:19:41;4.03;;;2.80;;
36855;SDS011;22788;51.434;6.786;2022-08-03T06:22:08;3.05;;;2.58;;
36855;SDS011;22788;51.434;6.786;2022-08-03T06:24:34;3.20;;;2.88;;
36855;SDS011;22788;51.434;6.786;2022-08-03T06:27:00;3.60;;;3.30;;
36855;SDS011;22788;51.434;6.786;2022-08-03T06:29:26;4.25;;;2.58;;
36855;SDS011;22788;51.434;6.786;2022-08-03T06:31:52;3.05;;;2.72;;
36855;SDS011;22788;51.434;6.786;2022-08-03T06:34:18;3.30;;;2.55;;
36855;SDS011;22788;51.434;6.786;2022-08-03T06:36:45;4.82;;;2.90;;
36855;SDS011;22788;51.434;6.786;2022-08-03T06:39:11;4.78;;;3.25;;
36855;SDS011;22788;51.434;6.786;2022-08-03T06:41:37;3.58;;;2.83;;
36855;SDS011;22788;51.434;6.786;2022-08-03T06:44:03;3.42;;;3.10;;
36855;SDS011;22788;51.434;6.786;2022-08-03T06:46:30;3.75;;;2.72;;
36855;SDS011;22788;51.434;6.786;2022-08-03T06:48:56;4.75;;;3.38;;
36855;SDS011;22788;51.434;6.786;2022-08-03T06:51:22;5.95;;;3.25;;
36855;SDS011;22788;51.434;6.786;2022-08-03T06:53:49;5.22;;;3.30;;
36855;SDS011;22788;51.434;6.786;2022-08-03T06:56:15;3.58;;;3.25;;
36855;SDS011;22788;51.434;6.786;2022-08-03T06:58:41;3.38;;;2.88;;
36855;SDS011;22788;51.434;6.786;2022-08-03T07:01:07;4.38;;;3.53;;
36855;SDS011;22788;51.434;6.786;2022-08-03T07:03:33;4.78;;;3.13;;
36855;SDS011;22788;51.434;6.786;2022-08-03T07:05:59;6.25;;;3.55;;
36855;SDS011;22788;51.434;6.786;2022-08-03T07:08:26;5.53;;;3.10;;
36855;SDS011;22788;51.434;6.786;2022-08-03T07:10:53;4.77;;;3.80;;
36855;SDS011;22788;51.434;6.786;2022-08-03T07:13:19;7.07;;;4.00;;
36855;SDS011;22788;51.434;6.786;2022-08-03T07:15:45;7.95;;;4.55;;
36855;SDS011;22788;51.434;6.786;2022-08-03T07:18:11;8.50;;;4.43;;
36855;SDS011;22788;51.434;6.786;2022-08-03T07:20:37;9.23;;;4.03;;
36855;SDS011;22788;51.434;6.786;2022-08-03T07:23:04;7.85;;;3.58;;
36855;SDS011;22788;51.434;6.786;2022-08-03T07:25:30;5.95;;;3.15;;
36855;SDS011;22788;51.434;6.786;2022-08-03T07:27:57;8.55;;;3.85;;
36855;SDS011;22788;51.434;6.786;2022-08-03T07:30:23;5.43;;;3.08;;
36855;SDS011;22788;51.434;6.786;2022-08-03T07:32:49;3.47;;;3.17;;
36855;SDS011;22788;51.434;6.786;2022-08-03T07:35:15;5.07;;;3.22;;
36855;SDS011;22788;51.434;6.786;2022-08-03T07:37:41;7.28;;;3.72;;
36855;SDS011;22788;51.434;6.786;2022-08-03T07:40:07;6.20;;;3.72;;
36855;SDS011;22788;51.434;6.786;2022-08-03T07:42:34;4.03;;;3.20;;
36855;SDS011;22788;51.434;6.786;2022-08-03T07:45:01;5.25;;;3.45;;
36855;SDS011;22788;51.434;6.786;2022-08-03T07:47:28;8.15;;;3.22;;
36855;SDS011;22788;51.434;6.786;2022-08-03T07:49:55;4.55;;;2.50;;
36855;SDS011;22788;51.434;6.786;2022-08-03T07:52:22;3.17;;;2.88;;
36855;SDS011;22788;51.434;6.786;2022-08-03T07:54:48;7.53;;;3.70;;
36855;SDS011;22788;51.434;6.786;2022-08-03T07:57:14;5.20;;;3.40;;
36855;SDS011;22788;51.434;6.786;2022-08-03T07:59:40;4.18;;;3.00;;
36855;SDS011;22788;51.434;6.786;2022-08-03T08:02:08;10.48;;;3.60;;
36855;SDS011;22788;51.434;6.786;2022-08-03T08:04:34;3.45;;;2.83;;
36855;SDS011;22788;51.434;6.786;2022-08-03T08:07:00;6.03;;;3.45;;
36855;SDS011;22788;51.434;6.786;2022-08-03T08:09:26;5.65;;;3.20;;
36855;SDS011;22788;51.434;6.786;2022-08-03T08:11:52;11.75;;;3.97;;
36855;SDS011;22788;51.434;6.786;2022-08-03T08:14:18;7.47;;;3.75;;
36855;SDS011;22788;51.434;6.786;2022-08-03T08:16:44;10.23;;;3.30;;
36855;SDS011;22788;51.434;6.786;2022-08-03T08:19:12;4.97;;;3.08;;
36855;SDS011;22788;51.434;6.786;2022-08-03T08:21:39;7.90;;;3.20;;
36855;SDS011;22788;51.434;6.786;2022-08-03T08:24:05;3.53;;;2.85;;
36855;SDS011;22788;51.434;6.786;2022-08-03T08:26:32;8.15;;;3.50;;
36855;SDS011;22788;51.434;6.786;2022-08-03T08:28:58;6.68;;;3.30;;
36855;SDS011;22788;51.434;6.786;2022-08-03T08:31:24;8.15;;;3.75;;
36855;SDS011;22788;51.434;6.786;2022-08-03T08:33:51;9.45;;;3.88;;
36855;SDS011;22788;51.434;6.786;2022-08-03T08:36:18;7.90;;;3.67;;
36855;SDS011;22788;51.434;6.786;2022-08-03T08:38:45;12.57;;;4.55;;
36855;SDS011;22788;51.434;6.786;2022-08-03T08:41:12;8.32;;;3.60;;
36855;SDS011;22788;51.434;6.786;2022-08-03T08:43:38;5.03;;;2.83;;
36855;SDS011;22788;51.434;6.786;2022-08-03T08:46:05;4.00;;;2.80;;
36855;SDS011;22788;51.434;6.786;2022-08-03T08:48:32;8.95;;;3.53;;
36855;SDS011;22788;51.434;6.786;2022-08-03T08:51:00;7.63;;;3.20;;
36855;SDS011;22788;51.434;6.786;2022-08-03T08:53:28;5.93;;;2.88;;
36855;SDS011;22788;51.434;6.786;2022-08-03T08:55:56;7.32;;;3.17;;
36855;SDS011;22788;51.434;6.786;2022-08-03T08:58:23;6.53;;;3.05;;
36855;SDS011;22788;51.434;6.786;2022-08-03T09:00:51;7.93;;;3.75;;
36855;SDS011;22788;51.434;6.786;2022-08-03T09:03:17;7.38;;;3.28;;
36855;SDS011;22788;51.434;6.786;2022-08-03T09:05:44;11.10;;;3.35;;
36855;SDS011;22788;51.434;6.786;2022-08-03T09:08:10;6.47;;;3.53;;
36855;SDS011;22788;51.434;6.786;2022-08-03T09:10:38;5.47;;;3.40;;
36855;SDS011;22788;51.434;6.786;2022-08-03T09:13:04;7.28;;;3.35;;
36855;SDS011;22788;51.434;6.786;2022-08-03T09:15:32;8.38;;;3.17;;
36855;SDS011;22788;51.434;6.786;2022-08-03T09:17:59;6.22;;;2.88;;
36855;SDS011;22788;51.434;6.786;2022-08-03T09:20:27;5.53;;;3.10;;
36855;SDS011;22788;51.434;6.786;2022-08-03T09:22:56;5.00;;;3.10;;
36855;SDS011;22788;51.434;6.786;2022-08-03T09:25:27;6.18;;;2.85;;
36855;SDS011;22788;51.434;6.786;2022-08-03T09:28:17;10.63;;;3.20;;
36855;SDS011;22788;51.434;6.786;2022-08-03T09:30:45;6.78;;;3.25;;
36855;SDS011;22788;51.434;6.786;2022-08-03T09:33:22;4.75;;;2.67;;
36855;SDS011;22788;51.434;6.786;2022-08-03T09:35:48;4.13;;;2.85;;
36855;SDS011;22788;51.434;6.786;2022-08-03T09:38:16;5.47;;;2.70;;
36855;SDS011;22788;51.434;6.786;2022-08-03T09:40:43;5.30;;;2.72;;
36855;SDS011;22788;51.434;6.786;2022-08-03T09:43:11;6.18;;;2.88;;
36855;SDS011;22788;51.434;6.786;2022-08-03T09:45:38;5.45;;;2.90;;
36855;SDS011;22788;51.434;6.786;2022-08-03T09:48:20;4.95;;;2.70;;
36855;SDS011;22788;51.434;6.786;2022-08-03T09:50:48;5.00;;;2.92;;
36855;SDS011;22788;51.434;6.786;2022-08-03T09:53:16;6.03;;;2.90;;
36855;SDS011;22788;51.434;6.786;2022-08-03T09:55:48;4.28;;;2.63;;
36855;SDS011;22788;51.434;6.786;2022-08-03T09:58:17;7.18;;;2.72;;
36855;SDS011;22788;51.434;6.786;2022-08-03T10:00:55;6.15;;;2.83;;
36855;SDS011;22788;51.434;6.786;2022-08-03T10:03:23;6.68;;;2.67;;
36855;SDS011;22788;51.434;6.786;2022-08-03T10:05:50;6.25;;;2.85;;
36855;SDS011;22788;51.434;6.786;2022-08-03T10:08:16;7.93;;;2.43;;
36855;SDS011;22788;51.434;6.786;2022-08-03T10:10:44;4.70;;;2.20;;
36855;SDS011;22788;51.434;6.786;2022-08-03T10:13:12;7.45;;;2.35;;
36855;SDS011;22788;51.434;6.786;2022-08-03T10:15:40;6.97;;;2.17;;
36855;SDS011;22788;51.434;6.786;2022-08-03T10:18:07;6.30;;;1.80;;
36855;SDS011;22788;51.434;6.786;2022-08-03T10:20:35;6.75;;;3.10;;
36855;SDS011;22788;51.434;6.786;2022-08-03T10:23:02;4.88;;;1.77;;
36855;SDS011;22788;51.434;6.786;2022-08-03T10:25:30;5.47;;;2.10;;
36855;SDS011;22788;51.434;6.786;2022-08-03T10:27:58;2.92;;;1.70;;
36855;SDS011;22788;51.434;6.786;2022-08-03T10:30:27;8.07;;;2.00;;
36855;SDS011;22788;51.434;6.786;2022-08-03T10:32:56;10.30;;;2.97;;
36855;SDS011;22788;51.434;6.786;2022-08-03T10:35:23;8.13;;;2.30;;
36855;SDS011;22788;51.434;6.786;2022-08-03T10:37:51;6.03;;;2.28;;
36855;SDS011;22788;51.434;6.786;2022-08-03T10:40:17;3.60;;;2.03;;
36855;SDS011;22788;51.434;6.786;2022-08-03T10:42:45;3.70;;;1.95;;
36855;SDS011;22788;51.434;6.786;2022-08-03T10:45:14;6.15;;;2.17;;
36855;SDS011;22788;51.434;6.786;2022-08-03T10:47:43;7.97;;;2.10;;
36855;SDS011;22788;51.434;6.786;2022-08-03T10:50:11;4.38;;;1.73;;
36855;SDS011;22788;51.434;6.786;2022-08-03T10:52:52;6.55;;;2.00;;
36855;SDS011;22788;51.434;6.786;2022-08-03T10:55:31;3.03;;;1.58;;
36855;SDS011;22788;51.434;6.786;2022-08-03T10:57:58;4.75;;;1.98;;
36855;SDS011;22788;51.434;6.786;2022-08-03T11:00:25;4.03;;;1.67;;
36855;SDS011;22788;51.434;6.786;2022-08-03T11:03:05;4.30;;;1.95;;
36855;SDS011;22788;51.434;6.786;2022-08-03T11:05:33;3.05;;;2.30;;
36855;SDS011;22788;51.434;6.786;2022-08-03T11:08:20;2.92;;;1.60;;
36855;SDS011;22788;51.434;6.786;2022-08-03T11:10:47;5.10;;;2.17;;
36855;SDS011;22788;51.434;6.786;2022-08-03T11:13:14;3.83;;;1.85;;
36855;SDS011;22788;51.434;6.786;2022-08-03T11:15:41;3.80;;;1.75;;
36855;SDS011;22788;51.434;6.786;2022-08-03T11:18:08;3.72;;;1.42;;
36855;SDS011;22788;51.434;6.786;2022-08-03T11:20:46;4.25;;;1.60;;
36855;SDS011;22788;51.434;6.786;2022-08-03T11:23:13;5.93;;;1.80;;
36855;SDS011;22788;51.434;6.786;2022-08-03T11:28:26;2.75;;;1.85;;
36855;SDS011;22788;51.434;6.786;2022-08-03T11:30:53;4.38;;;1.83;;
36855;SDS011;22788;51.434;6.786;2022-08-03T11:33:27;2.78;;;1.60;;
36855;SDS011;22788;51.434;6.786;2022-08-03T11:35:59;4.90;;;2.03;;
36855;SDS011;22788;51.434;6.786;2022-08-03T11:38:26;4.07;;;1.65;;
36855;SDS011;22788;51.434;6.786;2022-08-03T11:40:53;6.80;;;2.20;;
36855;SDS011;22788;51.434;6.786;2022-08-03T11:43:42;8.50;;;1.65;;
36855;SDS011;22788;51.434;6.786;2022-08-03T11:46:10;3.47;;;1.75;;
36855;SDS011;22788;51.434;6.786;2022-08-03T11:48:38;3.00;;;1.35;;
36855;SDS011;22788;51.434;6.786;2022-08-03T11:51:06;3.08;;;2.10;;
36855;SDS011;22788;51.434;6.786;2022-08-03T11:53:33;3.22;;;1.63;;
36855;SDS011;22788;51.434;6.786;2022-08-03T11:56:00;4.57;;;1.67;;
36855;SDS011;22788;51.434;6.786;2022-08-03T11:58:27;4.38;;;1.73;;
36855;SDS011;22788;51.434;6.786;2022-08-03T12:01:02;4.03;;;1.77;;
36855;SDS011;22788;51.434;6.786;2022-08-03T12:03:31;4.47;;;1.63;;
36855;SDS011;22788;51.434;6.786;2022-08-03T12:05:57;3.88;;;1.60;;
36855;SDS011;22788;51.434;6.786;2022-08-03T12:11:07;6.40;;;1.95;;
36855;SDS011;22788;51.434;6.786;2022-08-03T12:13:34;3.58;;;1.45;;
36855;SDS011;22788;51.434;6.786;2022-08-03T12:16:01;2.80;;;1.50;;
36855;SDS011;22788;51.434;6.786;2022-08-03T12:18:28;4.75;;;1.90;;
36855;SDS011;22788;51.434;6.786;2022-08-03T12:21:02;2.15;;;1.90;;
36855;SDS011;22788;51.434;6.786;2022-08-03T12:23:28;3.15;;;1.63;;
36855;SDS011;22788;51.434;6.786;2022-08-03T12:26:00;1.88;;;1.50;;
36855;SDS011;22788;51.434;6.786;2022-08-03T12:28:27;2.40;;;1.67;;
36855;SDS011;22788;51.434;6.786;2022-08-03T12:30:54;3.42;;;1.63;;
36855;SDS011;22788;51.434;6.786;2022-08-03T12:33:25;2.15;;;1.67;;
36855;SDS011;22788;51.434;6.786;2022-08-03T12:36:01;2.55;;;1.50;;
36855;SDS011;22788;51.434;6.786;2022-08-03T12:38:27;2.22;;;1.40;;
36855;SDS011;22788;51.434;6.786;2022-08-03T12:40:55;2.67;;;1.20;;
36855;SDS011;22788;51.434;6.786;2022-08-03T12:43:21;3.75;;;1.45;;
36855;SDS011;22788;51.434;6.786;2022-08-03T12:45:49;2.80;;;1.40;;
36855;SDS011;22788;51.434;6.786;2022-08-03T12:48:15;2.38;;;1.30;;
36855;SDS011;22788;51.434;6.786;2022-08-03T12:50:42;2.65;;;1.50;;
36855;SDS011;22788;51.434;6.786;2022-08-03T12:53:08;3.85;;;2.00;;
36855;SDS011;22788;51.434;6.786;2022-08-03T12:55:35;3.72;;;1.58;;
36855;SDS011;22788;51.434;6.786;2022-08-03T12:58:02;2.55;;;1.42;;
36855;SDS011;22788;51.434;6.786;2022-08-03T13:00:29;2.67;;;1.63;;
36855;SDS011;22788;51.434;6.786;2022-08-03T13:03:00;3.17;;;1.75;;
36855;SDS011;22788;51.434;6.786;2022-08-03T13:05:27;2.30;;;1.40;;
36855;SDS011;22788;51.434;6.786;2022-08-03T13:07:53;7.88;;;1.70;;
36855;SDS011;22788;51.434;6.786;2022-08-03T13:10:26;3.35;;;1.40;;
36855;SDS011;22788;51.434;6.786;2022-08-03T13:12:53;4.90;;;1.70;;
36855;SDS011;22788;51.434;6.786;2022-08-03T13:15:19;2.67;;;1.38;;
36855;SDS011;22788;51.434;6.786;2022-08-03T13:17:45;2.88;;;2.00;;
36855;SDS011;22788;51.434;6.786;2022-08-03T13:20:13;2.55;;;1.55;;
36855;SDS011;22788;51.434;6.786;2022-08-03T13:22:40;1.88;;;1.45;;
36855;SDS011;22788;51.434;6.786;2022-08-03T13:25:06;1.83;;;1.48;;
36855;SDS011;22788;51.434;6.786;2022-08-03T13:27:33;4.93;;;1.50;;
36855;SDS011;22788;51.434;6.786;2022-08-03T13:29:59;2.03;;;1.73;;
36855;SDS011;22788;51.434;6.786;2022-08-03T13:32:25;5.88;;;1.60;;
36855;SDS011;22788;51.434;6.786;2022-08-03T13:34:52;4.13;;;1.63;;
36855;SDS011;22788;51.434;6.786;2022-08-03T13:37:20;2.13;;;1.30;;
36855;SDS011;22788;51.434;6.786;2022-08-03T13:39:46;3.42;;;1.30;;
36855;SDS011;22788;51.434;6.786;2022-08-03T13:42:12;5.05;;;1.45;;
36855;SDS011;22788;51.434;6.786;2022-08-03T13:44:39;6.53;;;1.50;;
36855;SDS011;22788;51.434;6.786;2022-08-03T13:47:05;4.43;;;1.73;;
36855;SDS011;22788;51.434;6.786;2022-08-03T13:49:31;2.55;;;1.48;;
36855;SDS011;22788;51.434;6.786;2022-08-03T13:51:58;2.63;;;1.73;;
36855;SDS011;22788;51.434;6.786;2022-08-03T13:54:26;2.55;;;1.60;;
36855;SDS011;22788;51.434;6.786;2022-08-03T13:56:52;5.85;;;1.48;;
36855;SDS011;22788;51.434;6.786;2022-08-03T13:59:19;3.05;;;1.92;;
36855;SDS011;22788;51.434;6.786;2022-08-03T14:01:46;2.63;;;1.40;;
36855;SDS011;22788;51.434;6.786;2022-08-03T14:04:13;2.33;;;1.42;;
36855;SDS011;22788;51.434;6.786;2022-08-03T14:06:39;4.32;;;1.40;;
36855;SDS011;22788;51.434;6.786;2022-08-03T14:09:06;1.77;;;1.27;;
36855;SDS011;22788;51.434;6.786;2022-08-03T14:11:33;3.78;;;1.35;;
36855;SDS011;22788;51.434;6.786;2022-08-03T14:14:00;6.88;;;1.63;;
36855;SDS011;22788;51.434;6.786;2022-08-03T14:16:26;2.53;;;1.40;;
36855;SDS011;22788;51.434;6.786;2022-08-03T14:18:53;4.07;;;1.40;;
36855;SDS011;22788;51.434;6.786;2022-08-03T14:21:19;2.33;;;1.17;;
36855;SDS011;22788;51.434;6.786;2022-08-03T14:23:45;3.17;;;1.17;;
36855;SDS011;22788;51.434;6.786;2022-08-03T14:26:12;5.18;;;1.33;;
36855;SDS011;22788;51.434;6.786;2022-08-03T14:28:39;5.00;;;1.17;;
36855;SDS011;22788;51.434;6.786;2022-08-03T14:31:06;4.32;;;1.30;;
36855;SDS011;22788;51.434;6.786;2022-08-03T14:33:32;3.22;;;1.38;;
36855;SDS011;22788;51.434;6.786;2022-08-03T14:35:59;2.15;;;1.10;;
36855;SDS011;22788;51.434;6.786;2022-08-03T14:38:25;2.08;;;0.93;;
36855;SDS011;22788;51.434;6.786;2022-08-03T14:40:52;2.05;;;1.10;;
36855;SDS011;22788;51.434;6.786;2022-08-03T14:43:18;4.82;;;1.27;;
36855;SDS011;22788;51.434;6.786;2022-08-03T14:45:46;1.67;;;1.02;;
36855;SDS011;22788;51.434;6.786;2022-08-03T14:48:12;5.82;;;1.33;;
36855;SDS011;22788;51.434;6.786;2022-08-03T14:50:39;1.23;;;0.90;;
36855;SDS011;22788;51.434;6.786;2022-08-03T14:53:05;2.85;;;1.40;;
36855;SDS011;22788;51.434;6.786;2022-08-03T14:55:32;1.25;;;1.10;;
36855;SDS011;22788;51.434;6.786;2022-08-03T14:57:58;2.90;;;1.15;;